Lafontaine, Kansas
Current Conditions -  °F | °C
As of 1:52 AM on Friday 31 Oct 2014 (Local Time) from KCNU Reporting Station
Clear Clear  
Wind Chill: 50°   Ceiling: Unl
Heat Index: 50°   Visibility: 10mi
Dew Point: 40°   Wind: 13mph
Humidity: 68%   Direction: 340°NNW
Pressure: 30.24"   Gusts: NA
Location:  37.5252°N, 95.8316°W
Report Text: KCNU 310652Z AUTO 34011KT 10SM CLR 10/04 A3024 RMK AO2 SLP236 T01000044
Loading
Personal Weather Stations






























Interactive Weather Map
Tropical Storm Tracking
New forecast layout! Learn more

10-Day Weather Forecast

Advertisements
Track Severe Weather on mobile